Nearby METAR* Reports

*"METAR [Météorologique Aviation Régulière] is the international standard code format for hourly surface weather observations which is analogous to the SA coding currently used in the US. The acronym roughly translates from French as Aviation Routine Weather Report." (Source: http://gosic.org/wdcmet/us-metar-faq-taf)

 

KTEB - Teterboro, New Jersey, USA
Distance from station: ENE 2mi, 3km
Updated: 04/02/2020 12:51am
Clear
Clear
 Wind from NNW
Wind: NNW 12 mph , 19 km/h
Temperature: 45°F , 7°C
Wind Chill: 39°F , 4°C
Dew Point: 27°F , -3°C
Humidity: 49%
Barometer: 29.76 inHg , 1007.8 hPa
Clouds: Clear
Visibility: 10 miles , 16 km
2020/04/02 04:51 KTEB 020451Z 34010KT 10SM CLR 07/M03 A2976 RMK AO2 SLP078 T00671033 401220033
KNYC - Nyc/Central Park, New York, USA
Distance from station: SE 8mi, 13km
Updated: 04/02/2020 12:51am
Clear
Clear
 Wind from varies
Wind: varies 6 mph , 9 km/h
Temperature: 45°F , 7°C
Wind Chill: 42°F , 6°C
Dew Point: 25°F , -4°C
Humidity: 46%
Barometer: 29.78 inHg , 1008.5 hPa
Clouds: Clear
Visibility: 10 miles , 16 km
2020/04/02 04:51 KNYC 020451Z AUTO VRB05KT 10SM CLR 07/M04 A2978 RMK AO2 SLP078 T00721039 401330033
KCDW - Caldwell, New Jersey, USA
Distance from station: W 11mi, 17km
Updated: 04/02/2020 12:53am
Clear
Clear
 Wind from NNW
Wind: NNW 7 mph , 11 km/h, Gust: 17 mph , 28 km/h
Temperature: 45°F , 7°C
Wind Chill: 41°F , 5°C
Dew Point: 25°F , -4°C
Humidity: 46%
Barometer: 29.79 inHg , 1008.8 hPa
Clouds: Clear
Visibility: 10 miles , 16 km
2020/04/02 04:53 KCDW 020453Z AUTO 34006G15KT 10SM CLR 07/M04 A2979 RMK AO2 SLP092 T00721039 401330039
 
KLGA - Nyc/La Guardia, New York, USA
Distance from station: ESE 12mi, 19km
Updated: 04/02/2020 12:51am
Few Clouds
Few Clouds
 Wind from NNW
Wind: NNW 15 mph , 24 km/h
Temperature: 46°F , 8°C
Wind Chill: 40°F , 4°C
Dew Point: 27°F , -3°C
Humidity: 46%
Barometer: 29.75 inHg , 1007.5 hPa
Clouds: Few Clouds
Visibility: 10 miles , 16 km
Cloud details: Few Clouds 25000 ft
2020/04/02 04:51 KLGA 020451Z 33013KT 10SM FEW250 08/M03 A2975 RMK AO2 SLP075 T00831033 401280033
KEWR - Newark, New Jersey, USA
Distance from station: SSW 13mi, 20km
Updated: 04/02/2020 12:51am
Few Clouds
Few Clouds
 Wind from NNW
Wind: NNW 17 mph , 28 km/h
Temperature: 45°F , 7°C
Wind Chill: 38°F , 3°C
Dew Point: 25°F , -4°C
Humidity: 46%
Barometer: 29.77 inHg , 1008.1 hPa
Clouds: Few Clouds
Visibility: 10 miles , 16 km
Cloud details: Few Clouds 25000 ft
2020/04/02 04:51 KEWR 020451Z 33015KT 10SM FEW250 07/M04 A2977 RMK AO2 SLP080 T00721039 401390039
KMMU - Morristown Muni, New Jersey, USA
Distance from station: WSW 18mi, 29km
Updated: 04/02/2020 1:15am
Clear
Clear
 Wind from NW
Wind: NW 10 mph , 17 km/h
Temperature: 43°F , 6°C
Wind Chill: 37°F , 3°C
Dew Point: 27°F , -3°C
Humidity: 53%
Barometer: 29.78 inHg , 1008.5 hPa
Clouds: Clear
Visibility: 10 miles , 16 km
2020/04/02 05:15 KMMU 020515Z AUTO 32009KT 290V350 10SM CLR 06/M03 A2978 RMK
 
KLDJ - Linden, New Jersey, USA
Distance from station: SSW 19mi, 30km
Updated: 04/02/2020 12:55am
Clear
Clear
 Wind from NNW
Wind: NNW 12 mph , 19 km/h, Gust: 16 mph , 26 km/h
Temperature: 45°F , 7°C
Wind Chill: 39°F , 4°C
Dew Point: 25°F , -4°C
Humidity: 46%
Barometer: 29.78 inHg , 1008.5 hPa
Clouds: Clear
Visibility: 10 miles , 16 km
2020/04/02 04:55 KLDJ 020455Z AUTO 33010G14KT 10SM CLR 07/M04 A2978 RMK AO2 T00671041
KJFK - Nyc/Jfk Arpt, New York, USA
Distance from station: SE 23mi, 36km
Updated: 04/02/2020 12:51am
Clear
Clear
 Wind from NNW
Wind: NNW 20 mph , 31 km/h
Temperature: 46°F , 8°C
Wind Chill: 38°F , 3°C
Dew Point: 27°F , -3°C
Humidity: 46%
Barometer: 29.76 inHg , 1007.8 hPa
Clouds: Clear
Visibility: 10 miles , 16 km
2020/04/02 04:51 KJFK 020451Z 33017KT 10SM CLR 08/M03 A2976 RMK AO2 SLP076 T00781028 401330028
KHPN - White Plains, New York, USA
Distance from station: NE 25mi, 40km
Updated: 04/02/2020 12:56am
Clear
Clear
 Wind from NW
Wind: NW 14 mph , 22 km/h
Temperature: 43°F , 6°C
Wind Chill: 36°F , 2°C
Dew Point: 25°F , -4°C
Humidity: 49%
Barometer: 29.74 inHg , 1007.1 hPa
Clouds: Clear
Visibility: 10 miles , 16 km
2020/04/02 04:56 KHPN 020456Z 32012KT 10SM CLR 06/M04 A2974 RMK AO2 SLP073 T00561039 401170017
 
KSMQ - Somerville, New Jersey, USA
Distance from station: WSW 35mi, 56km
Updated: 04/02/2020 12:53am
Clear
Clear
 Wind from N
Wind: N 9 mph , 15 km/h, Gust: 20 mph , 31 km/h
Temperature: 45°F , 7°C
Wind Chill: 40°F , 4°C
Dew Point: 25°F , -4°C
Humidity: 46%
Barometer: 29.78 inHg , 1008.5 hPa
Clouds: Clear
Visibility: 10 miles , 16 km
2020/04/02 04:53 KSMQ 020453Z AUTO 35008G17KT 10SM CLR 07/M04 A2978 RMK AO2 SLP086 T00671039 401330033
K12N - Andover, New Jersey, USA
Distance from station: WNW 36mi, 57km
Updated: 04/02/2020 12:54am

 Wind from NNW
Wind: NNW 7 mph , 11 km/h
Temperature: 39°F , 4°C
Wind Chill: 34°F , 1°C
Dew Point: 25°F , -4°C
Humidity: 56%
Barometer: 29.80 inHg , 1009.1 hPa
2020/04/02 04:54 K12N 020454Z AUTO 34006KT 04/M04 A2980 RMK AO1 SLP095 T00441039 401170028
KFRG - Farmingdale, New York, USA
Distance from station: ESE 36mi, 58km
Updated: 04/02/2020 12:53am
Clear
Clear
 Wind from NW
Wind: NW 12 mph , 19 km/h
Temperature: 46°F , 8°C
Wind Chill: 40°F , 4°C
Dew Point: 27°F , -3°C
Humidity: 46%
Barometer: 29.73 inHg , 1006.8 hPa
Clouds: Clear
Visibility: 10 miles , 16 km
2020/04/02 04:53 KFRG 020453Z AUTO 32010KT 10SM CLR 08/M03 A2973 RMK AO2 SLP067 T00831033 401330028
 
KFWN - Sussex, New Jersey, USA
Distance from station: NW 37mi, 60km
Updated: 04/02/2020 12:53am
Clear
Clear
 Wind from N
Wind: N 8 mph , 13 km/h
Temperature: 41°F , 5°C
Wind Chill: 36°F , 2°C
Dew Point: 25°F , -4°C
Humidity: 53%
Barometer: 29.79 inHg , 1008.8 hPa
Clouds: Clear
Visibility: 10 miles , 16 km
2020/04/02 04:53 KFWN 020453Z AUTO 01007KT 10SM CLR 05/M04 A2979 RMK AO2 SLP089 T00501044 401280028
KSWF - Newburgh/Stewart, New York, USA
Distance from station: 0 44mi, 72km
Updated: 04/02/2020 12:45am
Clear
Clear
 Wind from varies
Wind: varies 6 mph , 9 km/h
Temperature: 39°F , 4°C
Wind Chill: 35°F , 2°C
Dew Point: 28°F , -2°C
Humidity: 65%
Barometer: 29.78 inHg , 1008.5 hPa
Clouds: Clear
Visibility: 10 miles , 16 km
2020/04/02 04:45 KSWF 020445Z VRB05KT 10SM SKC 04/M02 A2978
KMGJ - Montgomery, New York, USA
Distance from station: NNW 47mi, 75km
Updated: 04/02/2020 12:54am
Few Clouds
Few Clouds
 Wind from N
Wind: N 5 mph , 7 km/h
Temperature: 39°F , 4°C
Wind Chill: 35°F , 2°C
Dew Point: 25°F , -4°C
Humidity: 56%
Barometer: 29.78 inHg , 1008.5 hPa
Clouds: Few Clouds
Visibility: 10 miles , 16 km
Cloud details: Few Clouds 4900 ft
2020/04/02 04:54 KMGJ 020454Z AUTO 35004KT 10SM FEW049 04/M04 A2978 RMK AO2 SLP085 T00391039 401170006
 
KDXR - Danbury, Connecticut, USA
Distance from station: NE 47mi, 76km
Updated: 04/02/2020 12:53am
Clear
Clear
 Wind from NNW
Wind: NNW 10 mph , 17 km/h
Temperature: 39°F , 4°C
Wind Chill: 32°F , 0°C
Dew Point: 27°F , -3°C
Humidity: 61%
Barometer: 29.75 inHg , 1007.5 hPa
Clouds: Clear
Visibility: 10 miles , 16 km
2020/04/02 04:53 KDXR 020453Z AUTO 33009KT 10SM CLR 04/M03 A2975 RMK AO2 SLP076 T00441033 401170011
KBLM - Belmar/Farmdale, New Jersey, USA
Distance from station: S 48mi, 77km
Updated: 04/02/2020 12:56am
Clear
Clear
 Wind from NW
Wind: NW 15 mph , 24 km/h
Temperature: 45°F , 7°C
Wind Chill: 38°F , 3°C
Dew Point: 27°F , -3°C
Humidity: 49%
Barometer: 29.77 inHg , 1008.1 hPa
Clouds: Clear
Visibility: 10 miles , 16 km
2020/04/02 04:56 KBLM 020456Z AUTO 32013KT 10SM CLR 07/M03 A2977 RMK AO2 SLP083 T00671033 401220033